^^
Station Historical Data
Daily Summary for April 21, 2012 Units:  Metric    English   Both
« Previous Day
Next Day »
Daily Weekly Monthly Yearly Custom
  High: Low: Average:
Temperature: 11.7 °C 1.3 °C 6.9 °C
Dew Point: 4.4 °C -1.6 °C 1.5 °C
Humidity: 92% 51% 70%
Wind Speed: 3.2km/h 1.6km/h 1.8km/h
Wind Gust: 14.5km/h - -
Wind- - NE
Pressure: 1018.8 hPa 1016.1 hPa -
Precipitation: 0 mm    
Historical Graphs
 
 
Tabular Data for April 21, 2012
Time Temperature Dew Point Pressure Wind Wind Speed Wind Gust Humidity Rainfall Rate (Hourly)
00:09 5.1 °C 2.3 °C 1016.8 hPa NNE 1.6 km/h 6.4 km/h 82% 0 mm
00:19 5 °C 2.3 °C 1016.8 hPa Calm   3.2 km/h 83% 0 mm
00:29 4.8 °C 2.2 °C 1016.8 hPa Calm   4.8 km/h 83% 0 mm
00:39 4.8 °C 2.3 °C 1016.8 hPa North 1.6 km/h 6.4 km/h 84% 0 mm
00:49 4.6 °C 2.1 °C 1017.2 hPa Calm     84% 0 mm
00:59 4.4 °C 2.1 °C 1017.2 hPa Calm   1.6 km/h 85% 0 mm
01:09 4.3 °C 2.1 °C 1017.2 hPa Calm   3.2 km/h 86% 0 mm
01:19 4.1 °C 2 °C 1017.5 hPa Calm   1.6 km/h 86% 0 mm
01:29 4.1 °C 2 °C 1017.5 hPa Calm   1.6 km/h 86% 0 mm
01:39 4.1 °C 1.9 °C 1017.5 hPa Calm   1.6 km/h 86% 0 mm
01:49 3.9 °C 1.8 °C 1017.5 hPa Calm   1.6 km/h 86% 0 mm
01:59 3.8 °C 1.7 °C 1017.5 hPa Calm   1.6 km/h 86% 0 mm
02:09 3.7 °C 1.6 °C 1017.5 hPa Calm     86% 0 mm
02:19 3.4 °C 1.5 °C 1017.2 hPa Calm   1.6 km/h 87% 0 mm
02:29 3.3 °C 1.5 °C 1016.8 hPa Calm     88% 0 mm
02:39 3.1 °C 1.3 °C 1016.8 hPa Calm     88% 0 mm
02:49 2.8 °C 1.2 °C 1016.8 hPa Calm     89% 0 mm
02:59 2.7 °C 1.1 °C 1016.8 hPa Calm     89% 0 mm
03:09 2.5 °C 1.1 °C 1016.8 hPa Calm     90% 0 mm
03:19 2.4 °C 0.9 °C 1016.8 hPa Calm   3.2 km/h 90% 0 mm
03:29 2.4 °C 1.1 °C 1016.8 hPa Calm   1.6 km/h 91% 0 mm
03:39 2.3 °C 1 °C 1016.8 hPa Calm     91% 0 mm
03:49 2.2 °C 0.9 °C 1016.8 hPa Calm   1.6 km/h 91% 0 mm
03:59 2.1 °C 0.7 °C 1016.8 hPa Calm     91% 0 mm
04:09 2 °C 0.7 °C 1016.8 hPa Calm   1.6 km/h 91% 0 mm
04:19 1.9 °C 0.8 °C 1017.2 hPa Calm   1.6 km/h 92% 0 mm
04:29 1.8 °C 0.7 °C 1017.2 hPa Calm   1.6 km/h 92% 0 mm
04:39 1.8 °C 0.6 °C 1017.2 hPa Calm     92% 0 mm
04:49 1.8 °C 0.6 °C 1017.2 hPa Calm   1.6 km/h 92% 0 mm
04:59 1.7 °C 0.6 °C 1017.2 hPa Calm     92% 0 mm
05:09 1.7 °C 0.5 °C 1017.2 hPa Calm     92% 0 mm
05:19 1.6 °C 0.4 °C 1017.5 hPa Calm     92% 0 mm
05:29 1.5 °C 0.3 °C 1017.2 hPa Calm     92% 0 mm
05:39 1.5 °C 0.3 °C 1017.2 hPa Calm     92% 0 mm
05:49 1.4 °C 0.2 °C 1017.5 hPa Calm     92% 0 mm
05:59 1.3 °C 0.2 °C 1017.5 hPa Calm   1.6 km/h 92% 0 mm
06:09 1.4 °C 0.3 °C 1017.5 hPa Calm   1.6 km/h 92% 0 mm
06:19 1.5 °C 0.3 °C 1017.8 hPa Calm     92% 0 mm
06:29 1.6 °C 0.4 °C 1017.8 hPa Calm   1.6 km/h 92% 0 mm
06:39 1.7 °C 0.5 °C 1017.8 hPa Calm   3.2 km/h 92% 0 mm
06:49 1.8 °C 0.7 °C 1018.2 hPa Calm   1.6 km/h 92% 0 mm
06:59 2 °C 0.8 °C 1018.5 hPa Calm   3.2 km/h 92% 0 mm
07:09 2.3 °C 0.9 °C 1018.2 hPa Calm   4.8 km/h 91% 0 mm
07:19 2.6 °C 1.3 °C 1018.2 hPa Calm   1.6 km/h 91% 0 mm
07:29 3 °C 1.7 °C 1018.5 hPa North 1.6 km/h 6.4 km/h 91% 0 mm
07:39 3.3 °C 1.8 °C 1018.5 hPa NW 1.6 km/h 3.2 km/h 90% 0 mm
07:49 3.8 °C 2.2 °C 1018.5 hPa Calm   3.2 km/h 89% 0 mm
07:59 4.3 °C 2.5 °C 1018.5 hPa Calm   4.8 km/h 88% 0 mm
08:09 4.8 °C 2.8 °C 1018.5 hPa NNE 1.6 km/h 8 km/h 87% 0 mm
08:19 5.4 °C 3.2 °C 1018.5 hPa Calm   4.8 km/h 86% 0 mm
08:29 5.9 °C 3.6 °C 1018.2 hPa Calm   6.4 km/h 85% 0 mm
08:39 6.6 °C 3.8 °C 1018.5 hPa Calm   11.3 km/h 83% 0 mm
08:49 6.9 °C 3.7 °C 1018.5 hPa NNE 1.6 km/h 9.7 km/h 80% 0 mm
08:59 7.3 °C 3.8 °C 1018.5 hPa North 1.6 km/h 6.4 km/h 79% 0 mm
09:09 7.7 °C 4.2 °C 1018.5 hPa Calm   8 km/h 78% 0 mm
09:19 8.7 °C 4.4 °C 1018.5 hPa NE 1.6 km/h 11.3 km/h 75% 0 mm
09:29 8.4 °C 3.8 °C 1018.5 hPa NNE 1.6 km/h 9.7 km/h 73% 0 mm
09:39 8.3 °C 4.3 °C 1018.5 hPa Calm   6.4 km/h 76% 0 mm
09:49 8.9 °C 3.9 °C 1018.5 hPa NNE 1.6 km/h 14.5 km/h 71% 0 mm
09:59 8.9 °C 3.7 °C 1018.5 hPa NNE 1.6 km/h 8 km/h 70% 0 mm
10:09 9.3 °C 3.4 °C 1018.5 hPa North 1.6 km/h 8 km/h 67% 0 mm
10:19 8.7 °C 3.2 °C 1018.8 hPa Calm   9.7 km/h 68% 0 mm
10:29 8.5 °C 2.5 °C 1018.8 hPa Calm   6.4 km/h 66% 0 mm
10:39 9 °C 2.7 °C 1018.5 hPa North 1.6 km/h 11.3 km/h 65% 0 mm
10:49 8.9 °C 2.3 °C 1018.5 hPa NNE 1.6 km/h 8 km/h 63% 0 mm
10:59 8.7 °C 2.3 °C 1018.5 hPa North 1.6 km/h 6.4 km/h 64% 0 mm
11:09 9 °C 2.6 °C 1018.5 hPa Calm   11.3 km/h 64% 0 mm
11:19 10.1 °C 3.8 °C 1018.5 hPa NE 1.6 km/h 8 km/h 65% 0 mm
11:29 11.2 °C 3.7 °C 1018.5 hPa Calm   8 km/h 60% 0 mm
11:39 11.6 °C 3.8 °C 1018.5 hPa East 1.6 km/h 8 km/h 59% 0 mm
11:59 10.7 °C 3.2 °C 1018.2 hPa NNE 1.6 km/h 6.4 km/h 60% 0 mm
12:09 11 °C 3.7 °C 1018.2 hPa Calm   9.7 km/h 61% 0 mm
12:19 11.2 °C 3.3 °C 1018.2 hPa ENE 3.2 km/h 9.7 km/h 58% 0 mm
12:29 11.1 °C 3.1 °C 1018.2 hPa ENE 1.6 km/h 9.7 km/h 58% 0 mm
12:39 10.9 °C 2.7 °C 1017.8 hPa Calm   6.4 km/h 57% 0 mm
12:49 10.8 °C 3.6 °C 1017.8 hPa NE 3.2 km/h 11.3 km/h 61% 0 mm
12:59 10.7 °C 3 °C 1017.5 hPa NNE 1.6 km/h 8 km/h 59% 0 mm
13:09 11.1 °C 3.1 °C 1017.5 hPa NE 1.6 km/h 11.3 km/h 58% 0 mm
13:19 11.2 °C 3.5 °C 1017.5 hPa Calm   11.3 km/h 59% 0 mm
13:29 11.2 °C 3.3 °C 1017.8 hPa NNE 1.6 km/h 14.5 km/h 58% 0 mm
13:39 11.2 °C 3 °C 1017.8 hPa NE 1.6 km/h 9.7 km/h 57% 0 mm
13:49 10.9 °C 2.9 °C 1017.5 hPa NE 3.2 km/h 11.3 km/h 58% 0 mm
13:59 11.1 °C 2.8 °C 1017.5 hPa NE 1.6 km/h 11.3 km/h 57% 0 mm
14:09 11.3 °C 3.3 °C 1017.5 hPa East 3.2 km/h 9.7 km/h 58% 0 mm
14:19 11.6 °C 3.1 °C 1017.2 hPa NE 3.2 km/h 8 km/h 56% 0 mm
14:29 11.3 °C 2.6 °C 1017.2 hPa Calm   6.4 km/h 55% 0 mm
14:39 11 °C 3.1 °C 1017.2 hPa NNE 1.6 km/h 6.4 km/h 58% 0 mm
14:49 10.9 °C 2.4 °C 1016.8 hPa Calm   4.8 km/h 56% 0 mm
14:59 11.2 °C 2.5 °C 1016.8 hPa NE 1.6 km/h 6.4 km/h 55% 0 mm
15:09 11.4 °C 2.7 °C 1016.8 hPa ENE 1.6 km/h 9.7 km/h 55% 0 mm
15:19 11.6 °C 2.6 °C 1016.8 hPa NE 1.6 km/h 6.4 km/h 54% 0 mm
15:29 11.5 °C 2.5 °C 1016.8 hPa Calm   6.4 km/h 54% 0 mm
15:39 11.7 °C 2.7 °C 1016.5 hPa NNE 1.6 km/h 12.9 km/h 54% 0 mm
15:49 11.4 °C 2.1 °C 1016.5 hPa Calm   8 km/h 53% 0 mm
15:59 11.2 °C 1.9 °C 1016.5 hPa Calm   6.4 km/h 53% 0 mm
16:09 10.9 °C 2 °C 1016.5 hPa Calm   9.7 km/h 54% 0 mm
16:19 11.1 °C 2.1 °C 1016.5 hPa Calm   4.8 km/h 54% 0 mm
16:29 11.2 °C 1.7 °C 1016.5 hPa ENE 1.6 km/h 6.4 km/h 52% 0 mm
16:39 11.2 °C 2 °C 1016.1 hPa Calm   8 km/h 53% 0 mm
16:49 11.3 °C 1.5 °C 1016.1 hPa NNE 1.6 km/h 6.4 km/h 51% 0 mm
16:59 11.2 °C 1.7 °C 1016.1 hPa NE 1.6 km/h 8 km/h 52% 0 mm
17:09 10.9 °C 1.2 °C 1016.1 hPa Calm   4.8 km/h 51% 0 mm
17:19 10.9 °C 1.4 °C 1016.5 hPa NE 1.6 km/h 4.8 km/h 52% 0 mm
17:29 11.1 °C 1.3 °C 1016.5 hPa NE 1.6 km/h 6.4 km/h 51% 0 mm
17:39 11.3 °C 1.8 °C 1016.5 hPa ENE 1.6 km/h 8 km/h 52% 0 mm
17:49 11.5 °C 1.7 °C 1016.5 hPa Calm   8 km/h 51% 0 mm
17:59 11.4 °C 1.6 °C 1016.5 hPa East 1.6 km/h 8 km/h 51% 0 mm
18:09 11.2 °C 1.4 °C 1016.5 hPa ENE 1.6 km/h 11.3 km/h 51% 0 mm
18:19 10.8 °C 1.1 °C 1016.5 hPa NNE 1.6 km/h 11.3 km/h 51% 0 mm
18:29 10.3 °C 0.8 °C 1016.5 hPa Calm   6.4 km/h 52% 0 mm
18:39 9.8 °C 0.4 °C 1016.5 hPa Calm   6.4 km/h 52% 0 mm
18:49 9.5 °C 0.7 °C 1016.5 hPa Calm   3.2 km/h 54% 0 mm
18:59 9.3 °C 0.4 °C 1016.5 hPa Calm   4.8 km/h 54% 0 mm
19:09 9.2 °C 0.3 °C 1016.5 hPa Calm   3.2 km/h 54% 0 mm
19:19 9 °C 0.2 °C 1016.8 hPa Calm   3.2 km/h 54% 0 mm
19:29 8.8 °C -0.3 °C 1016.8 hPa Calm   4.8 km/h 53% 0 mm
19:39 8.5 °C -0.3 °C 1016.8 hPa Calm   4.8 km/h 54% 0 mm
19:49 8.3 °C -0.3 °C 1016.8 hPa Calm   4.8 km/h 55% 0 mm
20:09 7.8 °C -0.9 °C 1017.2 hPa Calm   3.2 km/h 54% 0 mm
20:19 7.6 °C -1.1 °C 1017.2 hPa Calm   3.2 km/h 54% 0 mm
20:29 7.4 °C -1.3 °C 1017.2 hPa Calm   4.8 km/h 54% 0 mm
20:39 7.2 °C -1.4 °C 1017.2 hPa NE 1.6 km/h 3.2 km/h 54% 0 mm
20:49 7.1 °C -1.6 °C 1017.5 hPa Calm   6.4 km/h 54% 0 mm
20:59 6.8 °C -1.3 °C 1017.5 hPa Calm   4.8 km/h 56% 0 mm
21:09 6.7 °C -1.4 °C 1017.5 hPa Calm   3.2 km/h 56% 0 mm
21:19 6.6 °C -1.3 °C 1017.5 hPa Calm   4.8 km/h 57% 0 mm
21:29 6.6 °C -1.1 °C 1017.5 hPa NE 1.6 km/h 8 km/h 58% 0 mm
21:39 6.6 °C -1.1 °C 1017.5 hPa Calm   8 km/h 58% 0 mm
21:49 6.5 °C -0.7 °C 1017.2 hPa Calm   4.8 km/h 60% 0 mm
21:59 6.3 °C -0.7 °C 1017.2 hPa Calm   3.2 km/h 61% 0 mm
22:09 6.2 °C -0.6 °C 1017.2 hPa Calm   6.4 km/h 62% 0 mm
22:19 6.1 °C -0.7 °C 1017.2 hPa Calm   8 km/h 62% 0 mm
22:29 5.9 °C -0.9 °C 1017.2 hPa Calm   3.2 km/h 62% 0 mm
22:39 5.7 °C -0.8 °C 1017.2 hPa Calm   3.2 km/h 63% 0 mm
22:49 5.5 °C -0.8 °C 1016.8 hPa NE 1.6 km/h 6.4 km/h 64% 0 mm
22:59 5.4 °C -0.7 °C 1016.8 hPa Calm   3.2 km/h 65% 0 mm
23:09 5.2 °C -0.8 °C 1016.8 hPa Calm   3.2 km/h 65% 0 mm
23:19 5.1 °C -0.8 °C 1016.8 hPa Calm   6.4 km/h 66% 0 mm
23:29 5 °C -0.4 °C 1016.8 hPa Calm   3.2 km/h 68% 0 mm
23:39 4.9 °C -0.5 °C 1016.8 hPa Calm   4.8 km/h 68% 0 mm
23:49 4.8 °C -0.2 °C 1016.8 hPa Calm     70% 0 mm
23:59 4.7 °C -0.3 °C 1016.8 hPa Calm   3.2 km/h 70% 0 mm
jolietwx - Weather
Compliments of Weather Underground